Observation data for Gail on 12/09/2018      Previous  Date       Current Mesonet Observations  Soil Data  Daily Summary Page  Observations in Plain Language
KGGS 090600Z 30002KT M02/M03 A3031 RMK A01 T10161031  RH  090%=      5-min Rain = 0
KGGS 090605Z 30003KT M02/M03 A3031 RMK A01 T10161031  RH  090%=      5-min Rain = 0
KGGS 090610Z 31003KT M02/M03 A3031 RMK A01 T10171032  RH  090%=      5-min Rain = 0
KGGS 090615Z 32002KT M02/M03 A303 RMK A01 T10181033  RH  090%=      5-min Rain = 0
KGGS 090620Z 31002KT M02/M03 A3031 RMK A01 T10191034  RH  090%=      5-min Rain = 0
KGGS 090625Z 31002KT M02/M04 A3031 RMK A01 T10201035  RH  090%=      5-min Rain = 0
KGGS 090630Z 31002KT M02/M04 A3031 RMK A01 T10211036  RH  090%=      5-min Rain = 0
KGGS 090635Z 31002KT M02/M04 A303 RMK A01 T10221037  RH  090%=      5-min Rain = 0
KGGS 090640Z 30003KT M02/M03 A303 RMK A01 T10191034  RH  090%=      5-min Rain = 0
KGGS 090645Z 30004KT M02/M04 A303 RMK A01 T10201035  RH  090%=      5-min Rain = 0
KGGS 090650Z 31004KT M02/M04 A303 RMK A01 T10241039  RH  090%=      5-min Rain = 0
KGGS 090655Z 30004KT M03/M04 A303 RMK A01 T10251039  RH  090%=      5-min Rain = 0
KGGS 090700Z 30005KT M02/M03 A303 RMK A01 T10201034  RH  091%=      5-min Rain = 0
KGGS 090705Z 30005KT M02/M03 A303 RMK A01 T10181032  RH  091%=      5-min Rain = 0
KGGS 090710Z 30005KT M02/M03 A303 RMK A01 T10171031  RH  091%=      5-min Rain = 0
KGGS 090715Z 30004KT M02/M03 A3029 RMK A01 T10161030  RH  091%=      5-min Rain = 0
KGGS 090720Z 30005KT M02/M03 A3029 RMK A01 T10161030  RH  091%=      5-min Rain = 0
KGGS 090725Z 31005KT M02/M03 A3029 RMK A01 T10181032  RH  091%=      5-min Rain = 0
KGGS 090730Z 32003KT M02/M04 A3029 RMK A01 T10201035  RH  091%=      5-min Rain = 0
KGGS 090735Z 32003KT M02/M03 A3029 RMK A01 T10201034  RH  091%=      5-min Rain = 0
KGGS 090740Z 32004KT M02/M03 A3029 RMK A01 T10201034  RH  091%=      5-min Rain = 0
KGGS 090745Z 32003KT M02/M04 A3029 RMK A01 T10241038  RH  091%=      5-min Rain = 0
KGGS 090750Z 35002KT M02/M04 A3029 RMK A01 T10241038  RH  091%=      5-min Rain = 0
KGGS 090755Z 35002KT M02/M04 A3029 RMK A01 T10231037  RH  091%=      5-min Rain = 0
KGGS 090800Z 33003KT M02/M04 A3029 RMK A01 T10221036  RH  091%=      5-min Rain = 0
KGGS 090805Z 32004KT M02/M04 A3029 RMK A01 T10221035  RH  091%=      5-min Rain = 0
KGGS 090810Z 33005KT M02/M04 A3029 RMK A01 T10241038  RH  091%=      5-min Rain = 0
KGGS 090815Z 33006KT M03/M04 A3029 RMK A01 T10281042  RH  091%=      5-min Rain = 0
KGGS 090820Z 33005KT M03/M04 A3029 RMK A01 T10281042  RH  091%=      5-min Rain = 0
KGGS 090825Z 34005KT M03/M04 A3029 RMK A01 T10251038  RH  091%=      5-min Rain = 0
KGGS 090830Z 34005KT M02/M04 A3029 RMK A01 T10211035  RH  091%=      5-min Rain = 0
KGGS 090835Z 35005KT M02/M04 A3029 RMK A01 T10211035  RH  091%=      5-min Rain = 0
KGGS 090840Z 35005KT M02/M04 A3029 RMK A01 T10241037  RH  091%=      5-min Rain = 0
KGGS 090845Z 35005KT M03/M04 A3029 RMK A01 T10251038  RH  091%=      5-min Rain = 0
KGGS 090850Z 35005KT M02/M03 A3029 RMK A01 T10201033  RH  091%=      5-min Rain = 0
KGGS 090855Z 35005KT M02/M03 A3029 RMK A01 T10201033  RH  091%=      5-min Rain = 0
KGGS 090900Z 35006KT M02/M03 A3029 RMK A01 T10191032  RH  091%=      5-min Rain = 0
KGGS 090905Z 34005KT M02/M04 A3029 RMK A01 T10211035  RH  091%=      5-min Rain = 0
KGGS 090910Z 34005KT M02/M04 A3029 RMK A01 T10231037  RH  091%=      5-min Rain = 0
KGGS 090915Z 34005KT M03/M04 A3029 RMK A01 T10251039  RH  091%=      5-min Rain = 0
KGGS 090920Z 33005KT M03/M04 A3029 RMK A01 T10281041  RH  091%=      5-min Rain = 0
KGGS 090925Z 33005KT M03/M04 A3029 RMK A01 T10271041  RH  091%=      5-min Rain = 0
KGGS 090930Z 32004KT M03/M04 A3029 RMK A01 T10281041  RH  091%=      5-min Rain = 0
KGGS 090935Z 31003KT M03/M04 A3029 RMK A01 T10291043  RH  091%=      5-min Rain = 0
KGGS 090940Z 32002KT M03/M04 A303 RMK A01 T10281042  RH  091%=      5-min Rain = 0
KGGS 090945Z 34001KT M03/M04 A3029 RMK A01 T10271040  RH  091%=      5-min Rain = 0
KGGS 090950Z 34001KT M02/M04 A3029 RMK A01 T10241038  RH  091%=      5-min Rain = 0
KGGS 090955Z 34002KT M02/M04 A3029 RMK A01 T10221035  RH  091%=      5-min Rain = 0
KGGS 091000Z 35003KT M02/M04 A3029 RMK A01 T10231036  RH  091%=      5-min Rain = 0
KGGS 091005Z 34002KT M02/M04 A3029 RMK A01 T10231037  RH  091%=      5-min Rain = 0
KGGS 091010Z 33002KT M02/M04 A3029 RMK A01 T10241037  RH  091%=      5-min Rain = 0
KGGS 091015Z 34003KT M03/M04 A3029 RMK A01 T10251039  RH  091%=      5-min Rain = 0
KGGS 091020Z 34002KT M03/M04 A3029 RMK A01 T10261040  RH  091%=      5-min Rain = 0
KGGS 091025Z 34002KT M03/M04 A3029 RMK A01 T10251038  RH  091%=      5-min Rain = 0
KGGS 091030Z 35003KT M02/M04 A3029 RMK A01 T10241037  RH  091%=      5-min Rain = 0
KGGS 091035Z 35004KT M02/M04 A3029 RMK A01 T10241038  RH  091%=      5-min Rain = 0
KGGS 091040Z 00004KT M03/M04 A3029 RMK A01 T10261039  RH  091%=      5-min Rain = 0
KGGS 091045Z 01005KT M03/M04 A3029 RMK A01 T10271040  RH  091%=      5-min Rain = 0
KGGS 091050Z 00005KT M03/M04 A3029 RMK A01 T10271040  RH  091%=      5-min Rain = 0
KGGS 091055Z 01005KT M03/M04 A3029 RMK A01 T10261039  RH  091%=      5-min Rain = 0
KGGS 091100Z 36004KT M03/M04 A303 RMK A01 T10261040  RH  091%=      5-min Rain = 0
KGGS 091105Z 36004KT M03/M04 A303 RMK A01 T10281041  RH  091%=      5-min Rain = 0
KGGS 091110Z 36004KT M03/M04 A303 RMK A01 T10271041  RH  091%=      5-min Rain = 0
KGGS 091115Z 35004KT M03/M04 A303 RMK A01 T10251038  RH  091%=      5-min Rain = 0
KGGS 091120Z 34003KT M02/M04 A303 RMK A01 T10241038  RH  091%=      5-min Rain = 0
KGGS 091125Z 34003KT M03/M04 A303 RMK A01 T10251038  RH  091%=      5-min Rain = 0
KGGS 091130Z 34003KT M03/M04 A303 RMK A01 T10251038  RH  091%=      5-min Rain = 0
KGGS 091135Z 34004KT M03/M04 A3031 RMK A01 T10251038  RH  091%=      5-min Rain = 0
KGGS 091140Z 35004KT M03/M04 A3031 RMK A01 T10261040  RH  091%=      5-min Rain = 0
KGGS 091145Z 36004KT M03/M04 A3031 RMK A01 T10261040  RH  091%=      5-min Rain = 0
KGGS 091150Z 01004KT M03/M04 A3031 RMK A01 T10281042  RH  091%=      5-min Rain = 0
KGGS 091155Z 03004KT M03/M04 A3031 RMK A01 T10281042  RH  091%=      5-min Rain = 0
KGGS 091200Z 03004KT M03/M04 A3031 RMK A01 T10261040  RH  091%=      5-min Rain = 0
KGGS 091205Z 03004KT M02/M04 A3031 RMK A01 T10241038  RH  091%=      5-min Rain = 0
KGGS 091210Z 02003KT M02/M04 A3032 RMK A01 T10231036  RH  091%=      5-min Rain = 0
KGGS 091215Z 01003KT M02/M04 A3032 RMK A01 T10221036  RH  091%=      5-min Rain = 0
KGGS 091220Z 01004KT M03/M04 A3032 RMK A01 T10251039  RH  091%=      5-min Rain = 0
KGGS 091225Z 01004KT M03/M04 A3032 RMK A01 T10261041  RH  090%=      5-min Rain = 0
KGGS 091230Z 36004KT M03/M04 A3032 RMK A01 T10291043  RH  090%=      5-min Rain = 0
KGGS 091235Z 35004KT M03/M05 A3033 RMK A01 T10311045  RH  090%=      5-min Rain = 0
KGGS 091240Z 35004KT M03/M05 A3033 RMK A01 T10331048  RH  090%=      5-min Rain = 0
KGGS 091245Z 34004KT M04/M05 A3033 RMK A01 T10371052  RH  090%=      5-min Rain = 0
KGGS 091250Z 34005KT M04/M05 A3033 RMK A01 T10391054  RH  090%=      5-min Rain = 0
KGGS 091255Z 34006KT M04/M06 A3033 RMK A01 T10431058  RH  090%=      5-min Rain = 0
KGGS 091300Z 34007KT M05/M06 A3034 RMK A01 T10451059  RH  090%=      5-min Rain = 0
KGGS 091305Z 34006KT M04/M06 A3034 RMK A01 T10411055  RH  090%=      5-min Rain = 0
KGGS 091310Z 34006KT M04/M05 A3034 RMK A01 T10401054  RH  090%=      5-min Rain = 0
KGGS 091315Z 34006KT M04/M05 A3034 RMK A01 T10371051  RH  090%=      5-min Rain = 0
KGGS 091320Z 35006KT M04/M05 A3034 RMK A01 T10351049  RH  091%=      5-min Rain = 0
KGGS 091325Z 34005KT M04/M05 A3034 RMK A01 T10371050  RH  090%=      5-min Rain = 0
KGGS 091330Z 34005KT M04/M05 A3035 RMK A01 T10361050  RH  090%=      5-min Rain = 0
KGGS 091335Z 34005KT M04/M05 A3035 RMK A01 T10361049  RH  090%=      5-min Rain = 0
KGGS 091340Z 34005KT M03/M05 A3035 RMK A01 T10341048  RH  091%=      5-min Rain = 0
KGGS 091345Z 34005KT M03/M05 A3035 RMK A01 T10331046  RH  091%=      5-min Rain = 0
KGGS 091350Z 34004KT M03/M05 A3035 RMK A01 T10311045  RH  091%=      5-min Rain = 0
KGGS 091355Z 34004KT M03/M04 A3036 RMK A01 T10301044  RH  090%=      5-min Rain = 0
KGGS 091400Z 34004KT M03/M04 A3036 RMK A01 T10281043  RH  090%=      5-min Rain = 0
KGGS 091405Z 33005KT M03/M04 A3036 RMK A01 T10281043  RH  090%=      5-min Rain = 0
KGGS 091410Z 34006KT M03/M04 A3036 RMK A01 T10281043  RH  090%=      5-min Rain = 0
KGGS 091415Z 34006KT M03/M04 A3036 RMK A01 T10251040  RH  090%=      5-min Rain = 0
KGGS 091420Z 34006KT M02/M04 A3036 RMK A01 T10231038  RH  090%=      5-min Rain = 0
KGGS 091425Z 35006KT M02/M04 A3036 RMK A01 T10201035  RH  090%=      5-min Rain = 0
KGGS 091430Z 35005KT M02/M03 A3036 RMK A01 T10181033  RH  090%=      5-min Rain = 0
KGGS 091435Z 35005KT M02/M03 A3037 RMK A01 T10161032  RH  090%=      5-min Rain = 0
KGGS 091440Z 35005KT M01/M03 A3037 RMK A01 T10141030  RH  090%=      5-min Rain = 0
KGGS 091445Z 35005KT M01/M03 A3037 RMK A01 T10131029  RH  090%=      5-min Rain = 0
KGGS 091450Z 35006KT M01/M03 A3037 RMK A01 T10121028  RH  089%=      5-min Rain = 0
KGGS 091455Z 34005KT M01/M03 A3038 RMK A01 T10111027  RH  089%=      5-min Rain = 0
KGGS 091500Z 35006KT M01/M03 A3038 RMK A01 T10091026  RH  089%=      5-min Rain = 0
KGGS 091505Z 35007KT M01/M03 A3038 RMK A01 T10081025  RH  089%=      5-min Rain = 0
KGGS 091510Z 34007KT M01/M02 A3038 RMK A01 T10071024  RH  089%=      5-min Rain = 0
KGGS 091515Z 34007KT M01/M02 A3038 RMK A01 T10061022  RH  089%=      5-min Rain = 0
KGGS 091520Z 34007KT M00/M02 A3038 RMK A01 T10041021  RH  089%=      5-min Rain = 0
KGGS 091525Z 34007KT M00/M02 A3038 RMK A01 T10021019  RH  089%=      5-min Rain = 0
KGGS 091530Z 34006KT 00/M02 A3039 RMK A01 T00011016  RH  089%=      5-min Rain = 0
KGGS 091535Z 34005KT 00/M02 A3039 RMK A01 T00031015  RH  089%=      5-min Rain = 0
KGGS 091540Z 34004KT 01/M01 A3039 RMK A01 T00051013  RH  088%=      5-min Rain = 0
KGGS 091545Z 34005KT 01/M01 A3039 RMK A01 T00051014  RH  088%=      5-min Rain = 0
KGGS 091550Z 35004KT 01/M01 A304 RMK A01 T00081013  RH  087%=      5-min Rain = 0
KGGS 091555Z 35004KT 01/M01 A304 RMK A01 T00111011  RH  086%=      5-min Rain = 0
KGGS 091600Z 34004KT 01/M01 A304 RMK A01 T00131011  RH  085%=      5-min Rain = 0
KGGS 091605Z 35005KT 02/M01 A304 RMK A01 T00151010  RH  084%=      5-min Rain = 0
KGGS 091610Z 34006KT 02/M01 A3041 RMK A01 T00191008  RH  083%=      5-min Rain = 0
KGGS 091615Z 01005KT 02/M01 A3041 RMK A01 T00191011  RH  081%=      5-min Rain = 0
KGGS 091620Z 35005G10KT 02/M01 A3041 RMK A01 T00221012  RH  079%=      5-min Rain = 0
KGGS 091625Z 01005KT 02/M01 A3041 RMK A01 T00241013  RH  077%=      5-min Rain = 0
KGGS 091630Z 00005KT 03/M02 A304 RMK A01 T00251017  RH  075%=      5-min Rain = 0
KGGS 091635Z 02004KT 03/M02 A304 RMK A01 T00271018  RH  073%=      5-min Rain = 0
KGGS 091640Z 35005KT 03/M02 A3041 RMK A01 T00291021  RH  070%=      5-min Rain = 0
KGGS 091645Z 02005KT 03/M02 A3041 RMK A01 T00311022  RH  068%=      5-min Rain = 0
KGGS 091650Z 00004KT 03/M03 A3041 RMK A01 T00311025  RH  067%=      5-min Rain = 0
KGGS 091655Z 02003KT 04/M02 A3041 RMK A01 T00361022  RH  066%=      5-min Rain = 0
KGGS 091700Z 01004KT 04/M03 A3041 RMK A01 T00381028  RH  063%=      5-min Rain = 0
KGGS 091705Z 35005KT 04/M04 A304 RMK A01 T00411035  RH  058%=      5-min Rain = 0
KGGS 091710Z 03005KT 04/M04 A304 RMK A01 T00441040  RH  055%=      5-min Rain = 0
KGGS 091715Z 01005KT 05/M04 A304 RMK A01 T00461039  RH  054%=      5-min Rain = 0
KGGS 091720Z 01006KT 05/M04 A304 RMK A01 T00481039  RH  054%=      5-min Rain = 0
KGGS 091725Z 02004KT 05/M04 A304 RMK A01 T00491036  RH  055%=      5-min Rain = 0
KGGS 091730Z 01005KT 05/M04 A304 RMK A01 T00481037  RH  054%=      5-min Rain = 0
KGGS 091735Z 00005KT 05/M03 A304 RMK A01 T00531033  RH  054%=      5-min Rain = 0
KGGS 091740Z 01005KT 05/M04 A304 RMK A01 T00521040  RH  052%=      5-min Rain = 0
KGGS 091745Z 35005KT 05/M04 A3039 RMK A01 T00531037  RH  052%=      5-min Rain = 0
KGGS 091750Z 35005KT 06/M04 A3039 RMK A01 T00551038  RH  051%=      5-min Rain = 0
KGGS 091755Z 01005KT 05/M04 A3039 RMK A01 T00541038  RH  052%=      5-min Rain = 0
KGGS 091800Z 01005KT 06/M03 A3039 RMK A01 T00561034  RH  053%=      5-min Rain = 0
KGGS 091805Z 01004KT 06/M03 A3038 RMK A01 T00611034  RH  051%=      5-min Rain = 0
KGGS 091810Z 02004KT 06/M04 A3038 RMK A01 T00601037  RH  050%=      5-min Rain = 0
KGGS 091815Z 02005KT 06/M04 A3038 RMK A01 T00611037  RH  050%=      5-min Rain = 0
KGGS 091820Z 01004KT 06/M04 A3037 RMK A01 T00601040  RH  049%=      5-min Rain = 0
KGGS 091825Z 34008KT 07/M04 A3037 RMK A01 T00661037  RH  048%=      5-min Rain = 0
KGGS 091830Z 35007KT 06/M04 A3037 RMK A01 T00641040  RH  048%=      5-min Rain = 0
KGGS 091835Z 36005KT 06/M04 A3036 RMK A01 T00641041  RH  047%=      5-min Rain = 0
KGGS 091840Z 35005KT 07/M04 A3036 RMK A01 T00671041  RH  046%=      5-min Rain = 0
KGGS 091845Z 02004KT 07/M04 A3036 RMK A01 T00681043  RH  045%=      5-min Rain = 0
KGGS 091850Z 02007KT 07/M04 A3036 RMK A01 T00681044  RH  045%=      5-min Rain = 0
KGGS 091855Z 03006KT 07/M05 A3036 RMK A01 T00671046  RH  045%=      5-min Rain = 0
KGGS 091900Z 02005KT 07/M04 A3036 RMK A01 T00671040  RH  047%=      5-min Rain = 0
KGGS 091905Z 00003KT 07/M04 A3036 RMK A01 T00721035  RH  047%=      5-min Rain = 0
KGGS 091910Z 01006KT 08/M03 A3035 RMK A01 T00751031  RH  048%=      5-min Rain = 0
KGGS 091915Z 02005KT 08/M03 A3035 RMK A01 T00781028  RH  048%=      5-min Rain = 0
KGGS 091920Z 03005KT 08/M03 A3035 RMK A01 T00751032  RH  047%=      5-min Rain = 0
KGGS 091925Z 04004KT 07/M04 A3035 RMK A01 T00711036  RH  047%=      5-min Rain = 0
KGGS 091930Z 10003KT 07/M04 A3035 RMK A01 T00701037  RH  047%=      5-min Rain = 0
KGGS 091935Z 01001KT 07/M04 A3035 RMK A01 T00721035  RH  047%=      5-min Rain = 0
KGGS 091940Z 01004KT 07/M03 A3034 RMK A01 T00741032  RH  047%=      5-min Rain = 0
KGGS 091945Z 04004KT 08/M03 A3034 RMK A01 T00771028  RH  048%=      5-min Rain = 0
KGGS 091950Z 02005KT 08/M03 A3034 RMK A01 T00791028  RH  047%=      5-min Rain = 0
KGGS 091955Z 29004KT 08/M03 A3034 RMK A01 T00811029  RH  046%=      5-min Rain = 0
KGGS 092000Z 34003KT 08/M03 A3034 RMK A01 T00831030  RH  045%=      5-min Rain = 0
KGGS 092005Z 33004KT 08/M03 A3034 RMK A01 T00811031  RH  045%=      5-min Rain = 0
KGGS 092010Z 32002KT 08/M04 A3034 RMK A01 T00811036  RH  044%=      5-min Rain = 0
KGGS 092015Z 29001KT 08/M04 A3033 RMK A01 T00831038  RH  042%=      5-min Rain = 0
KGGS 092020Z 01003KT 08/M04 A3033 RMK A01 T00841037  RH  043%=      5-min Rain = 0
KGGS 092025Z 01002KT 08/M04 A3033 RMK A01 T00831038  RH  042%=      5-min Rain = 0
KGGS 092030Z 33004KT 09/M04 A3033 RMK A01 T00861035  RH  043%=      5-min Rain = 0
KGGS 092035Z 33003KT 09/M04 A3033 RMK A01 T00861035  RH  043%=      5-min Rain = 0
KGGS 092040Z 33001KT 09/M04 A3033 RMK A01 T00881035  RH  042%=      5-min Rain = 0
KGGS 092045Z 34003KT 09/M04 A3032 RMK A01 T00891035  RH  042%=      5-min Rain = 0
KGGS 092050Z 02004KT 09/M03 A3032 RMK A01 T00901031  RH  043%=      5-min Rain = 0
KGGS 092055Z 02004KT 09/M03 A3032 RMK A01 T00871033  RH  043%=      5-min Rain = 0
KGGS 092100Z 35004KT 09/M03 A3032 RMK A01 T00891031  RH  043%=      5-min Rain = 0
KGGS 092105Z 34002KT 09/M04 A3032 RMK A01 T00871037  RH  042%=      5-min Rain = 0
KGGS 092110Z 01001KT 09/M04 A3032 RMK A01 T00881035  RH  042%=      5-min Rain = 0
KGGS 092115Z 35005KT 09/M03 A3032 RMK A01 T00901030  RH  043%=      5-min Rain = 0
KGGS 092120Z 28004KT 09/M03 A3032 RMK A01 T00931032  RH  042%=      5-min Rain = 0
KGGS 092125Z 32002KT 09/M03 A3032 RMK A01 T00921032  RH  042%=      5-min Rain = 0
KGGS 092130Z 00004KT 09/M03 A3032 RMK A01 T00901033  RH  042%=      5-min Rain = 0
KGGS 092135Z 34004KT 09/M03 A3032 RMK A01 T00891032  RH  042%=      5-min Rain = 0
KGGS 092140Z 02003KT 09/M03 A3032 RMK A01 T00891031  RH  043%=      5-min Rain = 0
KGGS 092145Z 35005KT 09/M03 A3033 RMK A01 T00901032  RH  042%=      5-min Rain = 0
KGGS 092150Z 35004KT 09/M03 A3033 RMK A01 T00881034  RH  042%=      5-min Rain = 0
KGGS 092155Z 01003KT 09/M03 A3032 RMK A01 T00881033  RH  043%=      5-min Rain = 0
KGGS 092200Z 03002KT 09/M03 A3032 RMK A01 T00871033  RH  043%=      5-min Rain = 0
KGGS 092205Z 02004KT 09/M03 A3032 RMK A01 T00881032  RH  043%=      5-min Rain = 0
KGGS 092210Z 00005KT 09/M03 A3032 RMK A01 T00891028  RH  044%=      5-min Rain = 0
KGGS 092215Z 35005KT 09/M03 A3032 RMK A01 T00881031  RH  043%=      5-min Rain = 0
KGGS 092220Z 33004KT 09/M03 A3032 RMK A01 T00881032  RH  043%=      5-min Rain = 0
KGGS 092225Z 01004KT 09/M03 A3032 RMK A01 T00881031  RH  043%=      5-min Rain = 0
KGGS 092230Z 01005KT 09/M03 A3033 RMK A01 T00871030  RH  044%=      5-min Rain = 0
KGGS 092235Z 00005KT 09/M03 A3033 RMK A01 T00861029  RH  044%=      5-min Rain = 0
KGGS 092240Z 36005KT 09/M03 A3033 RMK A01 T00861026  RH  045%=      5-min Rain = 0
KGGS 092245Z 35005KT 09/M03 A3033 RMK A01 T00851027  RH  045%=      5-min Rain = 0
KGGS 092250Z 00005KT 08/M03 A3033 RMK A01 T00831028  RH  046%=      5-min Rain = 0
KGGS 092255Z 01005KT 08/M03 A3033 RMK A01 T00821028  RH  046%=      5-min Rain = 0
KGGS 092300Z 01006KT 08/M03 A3033 RMK A01 T00811028  RH  047%=      5-min Rain = 0
KGGS 092305Z 01005KT 08/M03 A3033 RMK A01 T00791027  RH  047%=      5-min Rain = 0
KGGS 092310Z 01005KT 08/M03 A3033 RMK A01 T00771027  RH  048%=      5-min Rain = 0
KGGS 092315Z 01006KT 07/M03 A3033 RMK A01 T00741026  RH  049%=      5-min Rain = 0
KGGS 092320Z 01005KT 07/M03 A3033 RMK A01 T00711026  RH  051%=      5-min Rain = 0
KGGS 092325Z 02005KT 07/M03 A3033 RMK A01 T00681025  RH  052%=      5-min Rain = 0
KGGS 092330Z 02005KT 06/M02 A3034 RMK A01 T00641023  RH  054%=      5-min Rain = 0
KGGS 092335Z 01004KT 06/M02 A3034 RMK A01 T00581023  RH  057%=      5-min Rain = 0
KGGS 092340Z 00005KT 05/M02 A3034 RMK A01 T00541022  RH  058%=      5-min Rain = 0
KGGS 092345Z 00005KT 05/M02 A3034 RMK A01 T00491024  RH  060%=      5-min Rain = 0
KGGS 092350Z 01004KT 05/M02 A3034 RMK A01 T00451024  RH  061%=      5-min Rain = 0
KGGS 092355Z 00004KT 04/M02 A3034 RMK A01 T00441024  RH  061%=      5-min Rain = 0
KGGS 100000Z 01003KT 04/M02 A3034 RMK A01 T00441024  RH  062%=      5-min Rain = 0
KGGS 100005Z 01004KT 04/M02 A3035 RMK A01 T00421024  RH  062%=      5-min Rain = 0
KGGS 100010Z 02003KT 04/M03 A3035 RMK A01 T00401025  RH  063%=      5-min Rain = 0
KGGS 100015Z 01003KT 04/M02 A3035 RMK A01 T00391024  RH  064%=      5-min Rain = 0
KGGS 100020Z 35003KT 04/M03 A3035 RMK A01 T00361025  RH  064%=      5-min Rain = 0
KGGS 100025Z 34003KT 03/M03 A3035 RMK A01 T00311028  RH  066%=      5-min Rain = 0
KGGS 100030Z 35004KT 03/M03 A3036 RMK A01 T00291028  RH  067%=      5-min Rain = 0
KGGS 100035Z 34005KT 02/M03 A3036 RMK A01 T00221031  RH  068%=      5-min Rain = 0
KGGS 100040Z 34007KT 02/M03 A3036 RMK A01 T00161032  RH  071%=      5-min Rain = 0
KGGS 100045Z 34007KT 02/M03 A3036 RMK A01 T00171027  RH  073%=      5-min Rain = 0
KGGS 100050Z 35006KT 02/M02 A3036 RMK A01 T00191023  RH  074%=      5-min Rain = 0
KGGS 100055Z 35006KT 02/M02 A3036 RMK A01 T00201022  RH  074%=      5-min Rain = 0
KGGS 100100Z 36005KT 02/M03 A3036 RMK A01 T00181025  RH  074%=      5-min Rain = 0
KGGS 100105Z 00005KT 02/M03 A3036 RMK A01 T00151026  RH  075%=      5-min Rain = 0
KGGS 100110Z 36004KT 01/M03 A3036 RMK A01 T00141025  RH  076%=      5-min Rain = 0
KGGS 100115Z 36004KT 02/M02 A3036 RMK A01 T00171023  RH  075%=      5-min Rain = 0
KGGS 100120Z 36003KT 02/M02 A3036 RMK A01 T00211021  RH  074%=      5-min Rain = 0
KGGS 100125Z 00004KT 02/M02 A3036 RMK A01 T00231021  RH  073%=      5-min Rain = 0
KGGS 100130Z 00004KT 02/M02 A3036 RMK A01 T00241022  RH  072%=      5-min Rain = 0
KGGS 100135Z 36003KT 02/M02 A3036 RMK A01 T00231023  RH  072%=      5-min Rain = 0
KGGS 100140Z 35003KT 02/M02 A3036 RMK A01 T00231023  RH  072%=      5-min Rain = 0
KGGS 100145Z 35003KT 02/M02 A3036 RMK A01 T00221024  RH  072%=      5-min Rain = 0
KGGS 100150Z 34003KT 02/M03 A3036 RMK A01 T00201025  RH  073%=      5-min Rain = 0
KGGS 100155Z 34003KT 02/M02 A3036 RMK A01 T00201024  RH  073%=      5-min Rain = 0
KGGS 100200Z 34003KT 02/M03 A3036 RMK A01 T00171026  RH  074%=      5-min Rain = 0
KGGS 100205Z 34004KT 02/M03 A3036 RMK A01 T00151027  RH  074%=      5-min Rain = 0
KGGS 100210Z 34004KT 01/M03 A3036 RMK A01 T00131027  RH  075%=      5-min Rain = 0
KGGS 100215Z 34004KT 01/M03 A3036 RMK A01 T00121027  RH  075%=      5-min Rain = 0
KGGS 100220Z 34005KT 01/M03 A3036 RMK A01 T00121028  RH  075%=      5-min Rain = 0
KGGS 100225Z 34005KT 01/M03 A3037 RMK A01 T00081031  RH  076%=      5-min Rain = 0
KGGS 100230Z 34004KT 01/M03 A3037 RMK A01 T00051032  RH  077%=      5-min Rain = 0
KGGS 100235Z 33005KT 00/M04 A3037 RMK A01 T00011035  RH  077%=      5-min Rain = 0
KGGS 100240Z 33006KT M01/M04 A3037 RMK A01 T10071040  RH  078%=      5-min Rain = 0
KGGS 100245Z 34005KT M01/M04 A3038 RMK A01 T10111042  RH  080%=      5-min Rain = 0
KGGS 100250Z 33004KT M01/M04 A3038 RMK A01 T10121040  RH  081%=      5-min Rain = 0
KGGS 100255Z 33003KT M01/M04 A3038 RMK A01 T10101037  RH  082%=      5-min Rain = 0
KGGS 100300Z 32004KT M01/M04 A3038 RMK A01 T10091036  RH  083%=      5-min Rain = 0
KGGS 100305Z 31004KT M01/M04 A3038 RMK A01 T10101036  RH  083%=      5-min Rain = 0
KGGS 100310Z 31003KT M01/M04 A3037 RMK A01 T10091035  RH  083%=      5-min Rain = 0
KGGS 100315Z 32003KT M01/M04 A3037 RMK A01 T10091035  RH  083%=      5-min Rain = 0
KGGS 100320Z 34003KT M01/M04 A3038 RMK A01 T10101035  RH  083%=      5-min Rain = 0
KGGS 100325Z 35003KT M01/M04 A3038 RMK A01 T10091035  RH  083%=      5-min Rain = 0
KGGS 100330Z 34003KT M01/M03 A3038 RMK A01 T10071032  RH  083%=      5-min Rain = 0
KGGS 100335Z 35003KT M01/M03 A3038 RMK A01 T10051032  RH  083%=      5-min Rain = 0
KGGS 100340Z 35003KT M00/M03 A3038 RMK A01 T10041032  RH  082%=      5-min Rain = 0
KGGS 100345Z 34003KT M00/M03 A3038 RMK A01 T10021031  RH  081%=      5-min Rain = 0
KGGS 100350Z 34003KT M00/M03 A3038 RMK A01 T10021033  RH  080%=      5-min Rain = 0
KGGS 100355Z 35003KT M00/M04 A3038 RMK A01 T10041036  RH  079%=      5-min Rain = 0
KGGS 100400Z 00003KT M01/M04 A3038 RMK A01 T10061038  RH  079%=      5-min Rain = 0
KGGS 100405Z 00003KT M01/M04 A3038 RMK A01 T10081040  RH  079%=      5-min Rain = 0
KGGS 100410Z 01003KT M01/M04 A3038 RMK A01 T10101041  RH  079%=      5-min Rain = 0
KGGS 100415Z 03003KT M01/M04 A3038 RMK A01 T10101042  RH  080%=      5-min Rain = 0
KGGS 100420Z 02004KT M01/M04 A3038 RMK A01 T10101041  RH  080%=      5-min Rain = 0
KGGS 100425Z 01004KT M01/M04 A3039 RMK A01 T10081039  RH  080%=      5-min Rain = 0
KGGS 100430Z 35003KT M01/M04 A3038 RMK A01 T10071039  RH  079%=      5-min Rain = 0
KGGS 100435Z 34003KT M01/M04 A3038 RMK A01 T10061039  RH  078%=      5-min Rain = 0
KGGS 100440Z 34003KT M01/M04 A3039 RMK A01 T10051040  RH  078%=      5-min Rain = 0
KGGS 100445Z 33003KT M00/M04 A3038 RMK A01 T10031039  RH  077%=      5-min Rain = 0
KGGS 100450Z 32002KT M00/M04 A3038 RMK A01 T10031040  RH  076%=      5-min Rain = 0
KGGS 100455Z 31002KT M00/M04 A3038 RMK A01 T10021040  RH  076%=      5-min Rain = 0
KGGS 100500Z 28002KT M00/M04 A3038 RMK A01 T10021041  RH  075%=      5-min Rain = 0
KGGS 100505Z 27002KT M00/M04 A3038 RMK A01 T10011041  RH  075%=      5-min Rain = 0
KGGS 100510Z 30002KT M00/M04 A3038 RMK A01 T10011042  RH  074%=      5-min Rain = 0
KGGS 100515Z 29002KT M00/M04 A3038 RMK A01 T10021044  RH  074%=      5-min Rain = 0
KGGS 100520Z 33003KT M01/M05 A3038 RMK A01 T10051046  RH  074%=      5-min Rain = 0
KGGS 100525Z 32004KT M01/M05 A3038 RMK A01 T10131052  RH  075%=      5-min Rain = 0
KGGS 100530Z 32003KT M02/M05 A3038 RMK A01 T10151050  RH  077%=      5-min Rain = 0
KGGS 100535Z 31003KT M02/M05 A3038 RMK A01 T10151049  RH  078%=      5-min Rain = 0
KGGS 100540Z 32003KT M02/M05 A3038 RMK A01 T10151048  RH  078%=      5-min Rain = 0
KGGS 100545Z 31003KT M02/M05 A3038 RMK A01 T10151047  RH  079%=      5-min Rain = 0
KGGS 100550Z 30003KT M01/M04 A3038 RMK A01 T10131044  RH  080%=      5-min Rain = 0
KGGS 100555Z 31003KT M01/M04 A3038 RMK A01 T10121044  RH  079%=      5-min Rain = 0

Page generated in 0.0096 seconds.